createdAt,value
2018-11-06T00:01:09.604Z,100227.16
2018-11-06T00:03:44.815Z,100233.39
2018-11-06T00:06:15.275Z,100226.39
2018-11-06T00:08:45.647Z,100230.25
2018-11-06T00:11:16.028Z,100228.20
2018-11-06T00:13:46.575Z,100229.83
2018-11-06T00:16:16.924Z,100224.91
2018-11-06T00:18:47.259Z,100223.98
2018-11-06T00:21:17.555Z,100221.83
2018-11-06T00:23:48.054Z,100229.17
2018-11-06T00:26:18.204Z,100227.97
2018-11-06T00:28:48.714Z,100220.02
2018-11-06T00:31:19.295Z,100218.83
2018-11-06T00:33:49.852Z,100213.23
2018-11-06T00:36:20.271Z,100200.02
2018-11-06T00:38:50.735Z,100201.94
2018-11-06T00:41:20.991Z,100198.14
2018-11-06T00:43:53.981Z,100202.45
2018-11-06T00:46:24.318Z,100202.94
2018-11-06T00:48:54.692Z,100207.73
2018-11-06T00:51:25.004Z,100205.11
2018-11-06T00:53:55.345Z,100203.97
2018-11-06T00:56:25.642Z,100207.38
2018-11-06T00:58:56.012Z,100203.11
2018-11-06T01:01:26.422Z,100210.48
2018-11-06T01:04:01.865Z,100211.06
2018-11-06T01:06:32.072Z,100218.18
2018-11-06T01:09:02.463Z,100215.72
2018-11-06T01:11:32.951Z,100211.92
2018-11-06T01:14:03.557Z,100214.38
2018-11-06T01:16:34.140Z,100210.80
2018-11-06T01:19:04.517Z,100212.97
2018-11-06T01:21:34.975Z,100216.06
2018-11-06T01:24:05.525Z,100215.72
2018-11-06T01:26:36.031Z,100215.38
2018-11-06T01:29:06.918Z,100216.26
2018-11-06T01:31:37.316Z,100225.89
2018-11-06T01:34:07.805Z,100219.75
2018-11-06T01:36:38.046Z,100225.01
2018-11-06T01:39:10.347Z,100217.41
2018-11-06T01:41:40.791Z,100215.44
2018-11-06T01:44:11.269Z,100224.78
2018-11-06T01:46:42.123Z,100218.12
2018-11-06T01:49:12.633Z,100222.49
2018-11-06T01:51:43.043Z,100219.09
2018-11-06T01:54:13.499Z,100223.61
2018-11-06T01:56:43.984Z,100223.52
2018-11-06T01:59:14.363Z,100217.48
2018-11-06T02:01:44.739Z,100224.27
2018-11-06T02:04:14.999Z,100222.30
2018-11-06T02:06:45.393Z,100225.76
2018-11-06T02:09:15.953Z,100224.74
2018-11-06T02:11:46.445Z,100223.58
2018-11-06T02:14:16.814Z,100227.09
2018-11-06T02:16:46.986Z,100219.83
2018-11-06T02:19:17.360Z,100220.25
2018-11-06T02:21:47.666Z,100220.83
2018-11-06T02:24:18.151Z,100219.43
2018-11-06T02:26:48.505Z,100212.66
2018-11-06T02:29:19.739Z,100211.23
2018-11-06T02:31:50.096Z,100206.89
2018-11-06T02:34:21.075Z,100219.03
2018-11-06T02:36:51.445Z,100222.20
2018-11-06T02:39:22.005Z,100223.75
2018-11-06T02:41:52.541Z,100214.74
2018-11-06T02:44:22.931Z,100209.83
2018-11-06T02:46:53.563Z,100205.26
2018-11-06T02:49:24.106Z,100211.11
2018-11-06T02:51:54.329Z,100208.97
2018-11-06T02:54:24.705Z,100213.77
2018-11-06T02:56:55.161Z,100217.80
2018-11-06T02:59:25.676Z,100206.34
2018-11-06T03:01:56.003Z,100212.19
2018-11-06T03:04:26.336Z,100212.59
2018-11-06T03:06:56.647Z,100213.41
2018-11-06T03:09:27.026Z,100212.70
2018-11-06T03:11:57.696Z,100210.88
2018-11-06T03:14:27.900Z,100202.83
2018-11-06T03:16:58.494Z,100210.42
2018-11-06T03:19:28.746Z,100216.37
2018-11-06T03:21:59.196Z,100205.45
2018-11-06T03:24:29.694Z,100215.31
2018-11-06T03:27:01.011Z,100220.52
2018-11-06T03:29:31.291Z,100224.69
2018-11-06T03:32:01.666Z,100227.27
2018-11-06T03:37:08.581Z,100223.83
2018-11-06T03:39:38.838Z,100219.38
2018-11-06T03:42:09.198Z,100226.03
2018-11-06T03:44:39.827Z,100224.93
2018-11-06T03:47:10.083Z,100228.84
2018-11-06T03:49:40.337Z,100229.48
2018-11-06T03:52:10.723Z,100236.05
2018-11-06T03:54:41.314Z,100236.20
2018-11-06T03:57:11.852Z,100228.66
2018-11-06T03:59:42.405Z,100234.32
2018-11-06T04:02:12.728Z,100233.34
2018-11-06T04:04:43.114Z,100230.08
2018-11-06T04:07:13.439Z,100234.63
2018-11-06T04:09:43.676Z,100233.64
2018-11-06T04:12:14.067Z,100234.28
2018-11-06T04:14:43.786Z,100233.45
2018-11-06T04:17:14.013Z,100233.45
2018-11-06T04:19:44.399Z,100242.27
2018-11-06T04:22:14.786Z,100233.45
2018-11-06T04:24:45.136Z,100228.06
2018-11-06T04:27:15.547Z,100235.88
2018-11-06T04:29:46.021Z,100237.81
2018-11-06T04:32:16.517Z,100243.50
2018-11-06T04:34:47.024Z,100238.20
2018-11-06T04:37:17.348Z,100242.86
2018-11-06T04:39:47.825Z,100247.75
2018-11-06T04:42:18.164Z,100249.09
2018-11-06T04:44:48.731Z,100248.87
2018-11-06T04:47:19.317Z,100252.48
2018-11-06T04:49:49.673Z,100257.31
2018-11-06T04:52:20.027Z,100254.39
2018-11-06T04:54:50.347Z,100255.78
2018-11-06T04:57:20.929Z,100254.77
2018-11-06T04:59:51.412Z,100251.32
2018-11-06T05:02:21.864Z,100255.48
2018-11-06T05:04:52.447Z,100251.58
2018-11-06T05:07:22.720Z,100255.53
2018-11-06T05:09:53.003Z,100261.70
2018-11-06T05:12:23.277Z,100258.42
2018-11-06T05:14:53.771Z,100259.00
2018-11-06T05:17:23.956Z,100261.56
2018-11-06T05:19:54.316Z,100264.39
2018-11-06T05:22:24.691Z,100268.13
2018-11-06T05:24:55.273Z,100270.86
2018-11-06T05:27:25.835Z,100280.11
2018-11-06T05:29:56.278Z,100278.97
2018-11-06T05:32:26.648Z,100285.80
2018-11-06T05:34:57.119Z,100279.48
2018-11-06T05:37:27.637Z,100279.52
2018-11-06T05:40:14.526Z,100279.11
2018-11-06T05:42:44.731Z,100274.17
2018-11-06T05:45:15.387Z,100271.77
2018-11-06T05:47:45.448Z,100278.66
2018-11-06T05:50:15.512Z,100278.20
2018-11-06T05:52:45.639Z,100282.62
2018-11-06T05:55:15.808Z,100288.98
2018-11-06T05:57:45.811Z,100290.98
2018-11-06T06:00:15.916Z,100296.43
2018-11-06T06:02:46.358Z,100294.52
2018-11-06T06:05:16.735Z,100296.69
2018-11-06T06:07:47.194Z,100298.45
2018-11-06T06:10:17.647Z,100299.12
2018-11-06T06:12:48.093Z,100303.33
2018-11-06T06:15:18.493Z,100307.75
2018-11-06T06:17:48.824Z,100307.73
2018-11-06T06:20:19.259Z,100307.99
2018-11-06T06:22:49.751Z,100306.96
2018-11-06T06:25:20.163Z,100300.58
2018-11-06T06:27:50.536Z,100306.39
2018-11-06T06:30:21.117Z,100311.46
2018-11-06T06:32:51.599Z,100313.73
2018-11-06T06:35:22.188Z,100319.91
2018-11-06T06:37:52.580Z,100324.08
2018-11-06T06:40:23.041Z,100316.60
2018-11-06T06:42:53.305Z,100320.30
2018-11-06T06:45:24.638Z,100315.47
2018-11-06T06:47:54.959Z,100318.34
2018-11-06T06:50:25.460Z,100317.51
2018-11-06T06:52:55.662Z,100321.69
2018-11-06T06:55:26.015Z,100331.36
2018-11-06T06:57:56.460Z,100329.75
2018-11-06T07:00:26.891Z,100337.87
2018-11-06T07:02:57.082Z,100342.91
2018-11-06T07:05:27.652Z,100344.56
2018-11-06T07:07:57.960Z,100345.41
2018-11-06T07:10:28.847Z,100341.07
2018-11-06T07:12:59.445Z,100337.30
2018-11-06T07:15:29.784Z,100338.34
2018-11-06T07:18:00.191Z,100341.63
2018-11-06T07:20:30.510Z,100347.41
2018-11-06T07:23:00.741Z,100338.66
2018-11-06T07:25:31.110Z,100343.63
2018-11-06T07:28:01.355Z,100340.62
2018-11-06T07:30:31.968Z,100344.34
2018-11-06T07:33:02.593Z,100351.39
2018-11-06T07:35:34.074Z,100353.05
2018-11-06T07:38:04.351Z,100349.45
2018-11-06T07:40:34.883Z,100352.01
2018-11-06T07:43:05.220Z,100356.39
2018-11-06T07:45:35.667Z,100356.80
2018-11-06T07:48:06.201Z,100356.94
2018-11-06T07:50:36.527Z,100356.81
2018-11-06T07:53:07.033Z,100358.38
2018-11-06T07:55:38.023Z,100360.89
2018-11-06T07:58:08.533Z,100363.08
2018-11-06T08:00:39.015Z,100362.85
2018-11-06T08:03:09.479Z,100366.69
2018-11-06T08:05:39.856Z,100371.06
2018-11-06T08:08:10.199Z,100374.73
2018-11-06T08:10:40.674Z,100374.58
2018-11-06T08:13:11.095Z,100380.37
2018-11-06T08:15:41.705Z,100375.20
2018-11-06T08:18:11.936Z,100369.30
2018-11-06T08:20:42.291Z,100373.14
2018-11-06T08:23:12.519Z,100383.95
2018-11-06T08:25:42.847Z,100381.62
2018-11-06T08:28:13.190Z,100386.07
2018-11-06T08:30:43.696Z,100392.13
2018-11-06T08:33:14.132Z,100389.14
2018-11-06T08:35:44.477Z,100379.56
2018-11-06T08:38:14.663Z,100376.64
2018-11-06T08:40:45.150Z,100383.11
2018-11-06T08:43:15.563Z,100371.02
2018-11-06T08:45:45.805Z,100371.41
2018-11-06T08:48:16.080Z,100372.89
2018-11-06T08:50:46.616Z,100366.70
2018-11-06T08:53:17.200Z,100364.41
2018-11-06T08:55:47.743Z,100359.88
2018-11-06T08:58:18.064Z,100359.20
2018-11-06T09:00:48.485Z,100363.47
2018-11-06T09:03:18.841Z,100376.75
2018-11-06T09:05:49.264Z,100377.34
2018-11-06T09:08:19.648Z,100388.27
2018-11-06T09:10:49.905Z,100386.62
2018-11-06T09:13:20.271Z,100394.16
2018-11-06T09:15:50.824Z,100398.67
2018-11-06T09:18:21.279Z,100398.42
2018-11-06T09:20:51.815Z,100402.48
2018-11-06T09:23:22.008Z,100395.77
2018-11-06T09:25:52.400Z,100397.27
2018-11-06T09:28:22.895Z,100394.41
2018-11-06T09:30:53.576Z,100395.27
2018-11-06T09:33:23.963Z,100386.78
2018-11-06T09:35:54.191Z,100389.37
2018-11-06T09:38:24.590Z,100389.31
2018-11-06T09:40:55.052Z,100378.24
2018-11-06T09:43:25.385Z,100376.76
2018-11-06T09:45:55.951Z,100377.68
2018-11-06T09:48:26.223Z,100376.30
2018-11-06T09:50:56.698Z,100374.92
2018-11-06T09:53:27.013Z,100376.93
2018-11-06T09:55:57.462Z,100372.68
2018-11-06T09:58:27.835Z,100367.64
2018-11-06T10:00:58.309Z,100362.89
2018-11-06T10:03:28.610Z,100367.08
2018-11-06T10:05:59.173Z,100368.58
2018-11-06T10:08:31.550Z,100375.43
2018-11-06T10:11:02.107Z,100370.78
2018-11-06T10:13:32.691Z,100370.78
2018-11-06T10:16:03.048Z,100367.08
2018-11-06T10:18:33.325Z,100366.66
2018-11-06T10:21:03.825Z,100371.41
2018-11-06T10:23:34.302Z,100376.77
2018-11-06T10:26:04.898Z,100376.91
2018-11-06T10:28:35.473Z,100375.61
2018-11-06T10:31:06.158Z,100366.90
2018-11-06T10:33:36.640Z,100361.55
2018-11-06T10:36:07.199Z,100354.94
2018-11-06T10:38:37.488Z,100349.83
2018-11-06T10:41:08.096Z,100348.34
2018-11-06T10:43:38.638Z,100351.05
2018-11-06T10:46:10.085Z,100360.33
2018-11-06T10:48:40.898Z,100355.49
2018-11-06T10:51:11.411Z,100361.29
2018-11-06T10:53:41.719Z,100360.94
2018-11-06T10:56:13.032Z,100358.70
2018-11-06T10:58:44.226Z,100363.91
2018-11-06T11:01:19.716Z,100354.86
2018-11-06T11:03:55.025Z,100352.83
2018-11-06T11:06:25.383Z,100350.62
2018-11-06T11:08:55.699Z,100353.58
2018-11-06T11:11:26.143Z,100344.36
2018-11-06T11:13:56.503Z,100344.53
2018-11-06T11:16:27.039Z,100343.61
2018-11-06T11:18:57.260Z,100347.19
2018-11-06T11:21:27.772Z,100344.04
2018-11-06T11:23:58.255Z,100348.22
2018-11-06T11:26:28.820Z,100341.81
2018-11-06T11:28:59.427Z,100342.72
2018-11-06T11:31:30.028Z,100339.53
2018-11-06T11:34:00.270Z,100343.12
2018-11-06T11:36:30.743Z,100340.35
2018-11-06T11:39:01.129Z,100341.81
2018-11-06T11:41:31.630Z,100343.49
2018-11-06T11:44:02.172Z,100347.22
2018-11-06T11:46:32.384Z,100355.12
2018-11-06T11:49:02.972Z,100347.43
2018-11-06T11:51:33.479Z,100351.77
2018-11-06T11:54:03.850Z,100352.27
2018-11-06T11:56:34.300Z,100352.27
2018-11-06T11:59:05.235Z,100352.58
2018-11-06T12:01:35.587Z,100353.25
2018-11-06T12:04:06.707Z,100349.34
2018-11-06T12:06:36.928Z,100350.23
2018-11-06T12:09:10.267Z,100345.58
2018-11-06T12:11:40.862Z,100342.55
2018-11-06T12:14:11.339Z,100340.47
2018-11-06T12:16:41.884Z,100333.12
2018-11-06T12:19:12.348Z,100328.05
2018-11-06T12:21:42.836Z,100324.52
2018-11-06T12:24:13.377Z,100325.48
2018-11-06T12:26:43.774Z,100321.38
2018-11-06T12:29:14.054Z,100319.22
2018-11-06T12:31:44.814Z,100321.41
2018-11-06T12:34:15.249Z,100324.47
2018-11-06T12:36:45.603Z,100325.64
2018-11-06T12:39:16.219Z,100316.19
2018-11-06T12:41:46.762Z,100318.48
2018-11-06T12:44:17.180Z,100320.73
2018-11-06T12:46:47.427Z,100314.36
2018-11-06T12:49:17.988Z,100312.14
2018-11-06T12:51:48.401Z,100318.42
2018-11-06T12:54:18.788Z,100316.95
2018-11-06T12:56:49.072Z,100322.54
2018-11-06T12:59:19.649Z,100311.48
2018-11-06T13:01:50.239Z,100313.86
2018-11-06T13:04:20.804Z,100316.86
2018-11-06T13:06:51.279Z,100313.39
2018-11-06T13:09:21.540Z,100315.57
2018-11-06T13:11:51.903Z,100311.38
2018-11-06T13:14:22.309Z,100312.05
2018-11-06T13:16:52.910Z,100306.55
2018-11-06T13:19:23.418Z,100306.19
2018-11-06T13:21:53.827Z,100300.05
2018-11-06T13:24:24.151Z,100291.02
2018-11-06T13:26:54.662Z,100296.47
2018-11-06T13:29:25.094Z,100291.70
2018-11-06T13:31:55.595Z,100293.61
2018-11-06T13:34:26.055Z,100301.44
2018-11-06T13:36:56.658Z,100300.20
2018-11-06T13:39:26.948Z,100299.88
2018-11-06T13:41:57.317Z,100300.06
2018-11-06T13:44:28.000Z,100302.98
2018-11-06T13:46:58.862Z,100301.42
2018-11-06T13:49:29.185Z,100302.17
2018-11-06T13:51:59.589Z,100296.49
2018-11-06T13:54:30.039Z,100293.38
2018-11-06T13:57:00.263Z,100295.89
2018-11-06T13:59:30.673Z,100293.52
2018-11-06T14:02:01.216Z,100288.75
2018-11-06T14:04:31.662Z,100288.98
2018-11-06T14:07:02.407Z,100288.35
2018-11-06T14:09:32.596Z,100293.06
2018-11-06T14:12:02.873Z,100295.21
2018-11-06T14:14:33.289Z,100304.53
2018-11-06T14:17:03.675Z,100302.53
2018-11-06T14:19:34.066Z,100301.59
2018-11-06T14:22:04.440Z,100303.53
2018-11-06T14:24:34.698Z,100300.55
2018-11-06T14:27:05.118Z,100302.94
2018-11-06T14:29:35.344Z,100301.75
2018-11-06T14:32:05.736Z,100303.25
2018-11-06T14:34:36.326Z,100302.27
2018-11-06T14:37:07.064Z,100303.65
2018-11-06T14:39:37.480Z,100302.83
2018-11-06T14:42:08.186Z,100305.33
2018-11-06T14:44:38.544Z,100300.23
2018-11-06T14:47:09.137Z,100304.75
2018-11-06T14:49:39.632Z,100298.01
2018-11-06T14:52:10.111Z,100300.33
2018-11-06T14:54:40.603Z,100305.43
2018-11-06T14:57:11.059Z,100302.48
2018-11-06T14:59:42.340Z,100294.72
2018-11-06T15:02:12.819Z,100294.97
2018-11-06T15:04:43.228Z,100290.39
2018-11-06T15:07:13.720Z,100290.95
2018-11-06T15:09:44.188Z,100291.26
2018-11-06T15:12:14.650Z,100296.77
2018-11-06T15:14:45.131Z,100289.61
2018-11-06T15:17:15.972Z,100294.55
2018-11-06T15:19:46.427Z,100295.67
2018-11-06T15:22:17.011Z,100290.06
2018-11-06T15:24:47.516Z,100290.27
2018-11-06T15:27:17.760Z,100296.91
2018-11-06T15:29:48.144Z,100304.16
2018-11-06T15:32:18.759Z,100303.14
2018-11-06T15:34:49.215Z,100299.27
2018-11-06T15:37:19.580Z,100308.89
2018-11-06T15:39:49.972Z,100307.98
2018-11-06T15:42:20.883Z,100309.27
2018-11-06T15:44:51.324Z,100310.96
2018-11-06T15:47:21.756Z,100313.02
2018-11-06T15:49:52.207Z,100313.02
2018-11-06T15:52:23.116Z,100305.78
2018-11-06T15:54:53.565Z,100307.63
2018-11-06T15:57:24.173Z,100303.91
2018-11-06T15:59:54.675Z,100299.83
2018-11-06T16:02:25.017Z,100307.36
2018-11-06T16:04:55.404Z,100310.05
2018-11-06T16:07:25.664Z,100312.70
2018-11-06T16:09:56.178Z,100311.94
2018-11-06T16:12:26.533Z,100315.27
2018-11-06T16:14:56.807Z,100319.27
2018-11-06T16:17:27.303Z,100317.71
2018-11-06T16:19:57.768Z,100318.53
2018-11-06T16:22:28.362Z,100317.33
2018-11-06T16:24:58.774Z,100313.98
2018-11-06T16:27:29.302Z,100305.64
2018-11-06T16:30:00.026Z,100296.62
2018-11-06T16:32:30.417Z,100298.55
2018-11-06T16:35:00.889Z,100297.00
2018-11-06T16:37:31.364Z,100302.75
2018-11-06T16:40:01.841Z,100302.39
2018-11-06T16:42:32.207Z,100302.27
2018-11-06T16:45:02.668Z,100302.08
2018-11-06T16:47:33.055Z,100305.03
2018-11-06T16:50:03.481Z,100303.34
2018-11-06T16:52:33.822Z,100298.72
2018-11-06T16:55:04.235Z,100298.44
2018-11-06T16:57:34.668Z,100298.78
2018-11-06T17:00:05.642Z,100304.73
2018-11-06T17:02:37.312Z,100302.78
2018-11-06T17:05:09.889Z,100300.56
2018-11-06T17:07:40.472Z,100298.15
2018-11-06T17:10:12.655Z,100298.78
2018-11-06T17:12:43.137Z,100304.31
2018-11-06T17:15:17.075Z,100307.30
2018-11-06T17:17:48.420Z,100298.69
2018-11-06T17:20:19.241Z,100301.47
2018-11-06T17:22:49.773Z,100296.95
2018-11-06T17:25:21.279Z,100299.73
2018-11-06T17:27:51.541Z,100305.76
2018-11-06T17:30:22.004Z,100300.66
2018-11-06T17:32:52.634Z,100306.70
2018-11-06T17:35:23.091Z,100310.22
2018-11-06T17:37:53.543Z,100305.75
2018-11-06T17:40:23.831Z,100300.38
2018-11-06T17:42:54.323Z,100305.56
2018-11-06T17:45:25.397Z,100310.61
2018-11-06T17:47:55.995Z,100308.47
2018-11-06T17:50:26.347Z,100308.61
2018-11-06T17:52:56.888Z,100310.98
2018-11-06T17:55:27.379Z,100302.39
2018-11-06T17:57:57.960Z,100300.39
2018-11-06T18:00:28.446Z,100308.26
2018-11-06T18:02:58.940Z,100300.63
2018-11-06T18:05:29.379Z,100298.02
2018-11-06T18:07:59.840Z,100298.80
2018-11-06T18:10:31.055Z,100298.11
2018-11-06T18:13:01.432Z,100302.48
2018-11-06T18:15:32.060Z,100306.25
2018-11-06T18:18:02.703Z,100302.69
2018-11-06T18:20:32.860Z,100293.88
2018-11-06T18:23:03.579Z,100294.08
2018-11-06T18:25:33.974Z,100291.03
2018-11-06T18:28:04.528Z,100288.16
2018-11-06T18:30:34.924Z,100291.80
2018-11-06T18:33:05.297Z,100289.63
2018-11-06T18:35:35.555Z,100291.84
2018-11-06T18:38:06.265Z,100292.73
2018-11-06T18:40:36.660Z,100286.84
2018-11-06T18:43:07.328Z,100288.62
2018-11-06T18:45:37.834Z,100295.66
2018-11-06T18:48:08.415Z,100290.50
2018-11-06T18:50:38.627Z,100295.66
2018-11-06T18:53:09.141Z,100286.59
2018-11-06T18:55:39.529Z,100288.50
2018-11-06T18:58:10.147Z,100292.47
2018-11-06T19:00:40.390Z,100291.10
2018-11-06T19:03:10.661Z,100292.97
2018-11-06T19:05:41.155Z,100300.44
2018-11-06T19:08:12.107Z,100302.98
2018-11-06T19:10:42.680Z,100300.34
2018-11-06T19:13:13.274Z,100302.55
2018-11-06T19:15:43.601Z,100299.14
2018-11-06T19:18:13.953Z,100298.23
2018-11-06T19:20:44.325Z,100299.53
2018-11-06T19:23:14.739Z,100295.89
2018-11-06T19:25:45.320Z,100293.22
2018-11-06T19:28:16.377Z,100294.13
2018-11-06T19:30:46.896Z,100290.93
2018-11-06T19:33:18.019Z,100286.13
2018-11-06T19:35:48.549Z,100281.86
2018-11-06T19:38:19.086Z,100282.16
2018-11-06T19:40:49.453Z,100288.37
2018-11-06T19:43:19.792Z,100286.16
2018-11-06T19:45:50.279Z,100282.38
2018-11-06T19:48:20.821Z,100293.50
2018-11-06T19:50:51.571Z,100290.75
2018-11-06T19:53:22.340Z,100287.72
2018-11-06T19:55:52.680Z,100281.93
2018-11-06T19:58:23.318Z,100285.94
2018-11-06T20:00:53.699Z,100284.95
2018-11-06T20:03:24.105Z,100283.11
2018-11-06T20:05:54.693Z,100282.13
2018-11-06T20:08:25.224Z,100275.06
2018-11-06T20:10:55.645Z,100273.02
2018-11-06T20:13:26.078Z,100276.52
2018-11-06T20:15:56.482Z,100271.81
2018-11-06T20:18:26.852Z,100271.11
2018-11-06T20:20:57.352Z,100271.27
2018-11-06T20:23:27.866Z,100270.72
2018-11-06T20:25:58.340Z,100267.67
2018-11-06T20:28:28.808Z,100264.70
2018-11-06T20:30:59.060Z,100263.79
2018-11-06T20:33:29.594Z,100260.49
2018-11-06T20:36:00.012Z,100257.55
2018-11-06T20:38:30.608Z,100264.91
2018-11-06T20:41:01.106Z,100258.25
2018-11-06T20:43:31.708Z,100252.44
2018-11-06T20:46:02.110Z,100259.12
2018-11-06T20:48:32.560Z,100256.23
2018-11-06T20:51:03.139Z,100255.50
2018-11-06T20:53:33.690Z,100252.44
2018-11-06T20:56:04.174Z,100257.61
2018-11-06T20:58:34.676Z,100251.94
2018-11-06T21:01:05.192Z,100251.66
2018-11-06T21:03:36.691Z,100252.85
2018-11-06T21:06:07.137Z,100255.95
2018-11-06T21:08:37.435Z,100252.45
2018-11-06T21:11:07.988Z,100247.13
2018-11-06T21:13:38.363Z,100248.92
2018-11-06T21:16:08.674Z,100255.94
2018-11-06T21:18:39.176Z,100254.88
2018-11-06T21:21:13.516Z,100250.77
2018-11-06T21:23:45.125Z,100251.94
2018-11-06T21:26:15.595Z,100243.40
2018-11-06T21:28:45.849Z,100252.69
2018-11-06T21:31:16.201Z,100252.38
2018-11-06T21:33:46.826Z,100251.08
2018-11-06T21:36:16.987Z,100252.33
2018-11-06T21:38:47.411Z,100254.03
2018-11-06T21:41:17.862Z,100256.44
2018-11-06T21:43:48.439Z,100267.50
2018-11-06T21:46:18.757Z,100271.05
2018-11-06T21:48:49.253Z,100268.36
2018-11-06T21:51:19.593Z,100271.80
2018-11-06T21:53:49.967Z,100270.07
2018-11-06T21:56:20.481Z,100269.02
2018-11-06T21:58:50.901Z,100275.69
2018-11-06T22:01:21.101Z,100268.58
2018-11-06T22:03:51.604Z,100277.55
2018-11-06T22:06:22.088Z,100279.54
2018-11-06T22:08:52.575Z,100280.90
2018-11-06T22:11:23.157Z,100278.19
2018-11-06T22:13:53.515Z,100282.59
2018-11-06T22:16:23.938Z,100284.70
2018-11-06T22:18:54.273Z,100293.34
2018-11-06T22:21:24.633Z,100301.72
2018-11-06T22:23:54.912Z,100301.02
2018-11-06T22:26:25.331Z,100298.08
2018-11-06T22:28:55.807Z,100294.77
2018-11-06T22:31:26.409Z,100291.05
2018-11-06T22:33:56.899Z,100292.27
2018-11-06T22:36:27.296Z,100292.45
2018-11-06T22:38:57.604Z,100289.76
2018-11-06T22:41:28.007Z,100288.83
2018-11-06T22:43:58.399Z,100281.03
2018-11-06T22:46:28.648Z,100283.10
2018-11-06T22:48:58.912Z,100279.30
2018-11-06T22:51:29.239Z,100272.02
2018-11-06T22:53:59.729Z,100275.67
2018-11-06T22:56:30.179Z,100283.63
2018-11-06T22:59:00.559Z,100274.06
2018-11-06T23:01:30.845Z,100270.21
2018-11-06T23:48:35.616Z,100270.55
2018-11-06T23:51:05.973Z,100269.39
2018-11-06T23:53:36.356Z,100267.49
2018-11-06T23:56:06.683Z,100272.77
2018-11-06T23:58:37.026Z,100275.84
